Latest Weather Observations for Bankstown

IDN60901

Issued at 7:11 pm EST Wednesday 26 June 2019 (issued every 10 minutes, with the page automatically refreshed every 10 minutes)

About weather observations | Map of Sydney area stations | Latest observations for Sydney area | Other Formats
Station Details ID: 066137 Name: BANKSTOWN AIRPORT AWS Lat: -33.92 Lon: 150.99 Height: 6.5 m
Data from the previous 72 hours. | See also: Recent months at Bankstown
Date/Time
EST
Temp
°C
App
Temp
°C
Dew
Point
°C
Rel
Hum
%
Delta-T
°C
Wind Press
QNH
hPa
Press
MSL
hPa
Rain since
9am
mm
Dir  Spd
km/h
Gust
km/h
Spd
kts
Gust
kts
26/07:00pm 13.2 11.4 10.9 86 1.2 SE 11 13 6 7 1035.1 1035.1 1.0
26/06:30pm 13.0 11.2 10.9 87 1.1 SSE 11 13 6 7 1035.0 1035.0 1.0
26/06:00pm 13.5 12.1 10.9 84 1.4 SSE 9 13 5 7 1034.8 1034.8 1.0
26/05:30pm 13.6 12.7 10.6 82 1.6 SE 6 7 3 4 1034.6 1034.6 1.0
26/05:00pm 13.5 11.5 10.1 80 1.7 SSE 11 11 6 6 1034.5 1034.5 1.0
26/04:30pm 14.9 11.4 10.3 74 2.4 SSE 19 28 10 15 1034.4 1034.4 1.0
26/04:00pm 15.8 12.3 10.8 72 2.6 SSE 20 28 11 15 1034.4 1034.4 1.0
26/03:30pm 15.9 13.2 10.4 70 2.9 SSE 15 20 8 11 1034.5 1034.5 1.0
26/03:00pm 16.3 14.0 11.7 74 2.5 SSE 15 19 8 10 1034.6 1034.6 1.0
26/02:30pm 15.9 13.3 12.1 78 2.1 SE 17 22 9 12 1034.6 1034.6 1.0
26/02:22pm 15.9 14.6 12.6 81 1.8 SE 11 17 6 9 1034.6 1034.6 1.0
26/02:02pm 14.9 9.7 11.5 80 1.8 SE 30 37 16 20 1034.6 1034.6 0.4
26/02:00pm 15.2 10.4 11.6 79 1.9 SE 28 37 15 20 1034.6 1034.6 0.0
26/01:30pm 17.6 13.9 10.0 61 4.0 SSE 20 28 11 15 1034.4 1034.4 0.0
26/01:00pm 17.3 13.4 9.5 60 4.0 SSE 20 30 11 16 1034.7 1034.7 0.0
26/12:30pm 17.4 14.7 10.5 64 3.7 S 15 19 8 10 1035.1 1035.1 0.0
26/12:00pm 17.2 14.7 11.2 68 3.2 S 15 22 8 12 1035.5 1035.5 0.0
26/11:30am 16.2 13.7 11.2 72 2.7 SSW 15 20 8 11 1036.0 1036.0 0.0
26/11:00am 15.4 14.2 11.6 78 2.0 SW 9 15 5 8 1036.3 1036.3 0.0
26/10:30am 14.0 13.3 12.0 88 1.1 WSW 7 9 4 5 1036.4 1036.4 0.0
26/10:00am 13.9 11.8 11.1 83 1.5 SSW 13 20 7 11 1036.5 1036.5 0.0
26/09:30am 14.3 14.2 10.7 79 1.9 SW 2 9 1 5 1036.4 1036.4 0.0
26/09:00am 13.5 12.8 10.1 80 1.7 SSW 4 7 2 4 1036.1 1036.1 0.2
26/08:30am 12.3 12.4 10.2 87 1.1 CALM 0 0 0 0 1035.9 1035.9 0.2
26/08:00am 11.7 11.8 10.1 90 0.8 CALM 0 0 0 0 1035.7 1035.7 0.2
26/07:30am 11.2 11.2 9.8 91 0.7 CALM 0 0 0 0 1035.5 1035.5 0.2
26/07:00am 10.8 10.8 9.7 93 0.5 CALM 0 0 0 0 1035.2 1035.2 0.2
26/06:30am 10.1 8.7 9.0 93 0.5 NNW 6 7 3 4 1034.9 1034.9 0.2
26/06:00am 10.4 8.9 9.3 93 0.5 N 7 9 4 5 1034.8 1034.8 0.2
26/05:30am 10.5 10.4 9.4 93 0.5 CALM 0 0 0 0 1034.5 1034.5 0.2
26/05:00am 10.7 10.6 9.3 91 0.7 CALM 0 0 0 0 1034.3 1034.3 0.2
26/04:30am 11.1 11.0 9.5 90 0.8 CALM 0 0 0 0 1034.2 1034.2 0.2
26/04:00am 11.6 9.9 9.9 89 0.9 SSW 9 9 5 5 1034.3 1034.3 0.2
26/03:30am 11.8 10.2 10.2 90 0.8 SSE 9 11 5 6 1034.3 1034.3 0.2
26/03:00am 12.3 11.2 10.7 90 0.8 NNW 7 9 4 5 1034.3 1034.3 0.2
26/02:30am 12.3 12.5 10.5 89 0.9 CALM 0 6 0 3 1034.2 1034.2 0.2
26/02:00am 12.4 12.0 11.0 91 0.7 NNE 4 7 2 4 1034.3 1034.3 0.2
26/01:30am 12.1 12.0 10.7 91 0.7 N 2 6 1 3 1034.2 1034.2 0.2
26/01:00am 12.1 11.0 10.5 90 0.8 E 7 9 4 5 1034.1 1034.1 0.2
26/12:30am 12.5 11.9 10.4 87 1.1 S 4 13 2 7 1034.4 1034.4 0.0
26/12:00am 12.0 10.7 9.9 87 1.1 SW 7 11 4 6 1034.2 1034.2 0.0
 
Date/Time
EST
Temp
°C
App
Temp
°C
Dew
Point
°C
Rel
Hum
%
Delta-T
°C
Wind Press
QNH
hPa
Press
MSL
hPa
Rain since
9am
mm
Dir  Spd
km/h
Gust
km/h
Spd
kts
Gust
kts
25/11:30pm 12.4 11.5 10.5 88 1.0 SW 6 6 3 3 1034.4 1034.4 0.0
25/11:00pm 12.7 11.5 10.2 85 1.3 SW 7 9 4 5 1034.4 1034.4 0.0
25/10:30pm 13.0 13.2 10.4 84 1.3 CALM 0 0 0 0 1034.4 1034.4 0.0
25/10:00pm 12.9 13.1 10.4 85 1.3 CALM 0 0 0 0 1034.3 1034.3 0.0
25/09:30pm 12.6 12.7 10.3 86 1.2 CALM 0 0 0 0 1034.1 1034.1 0.0
25/09:00pm 12.1 12.2 10.0 87 1.1 CALM 0 0 0 0 1034.0 1034.0 0.0
25/08:30pm 12.4 11.0 9.6 83 1.4 SW 7 9 4 5 1034.0 1034.0 0.0
25/08:00pm 13.6 11.7 10.4 81 1.6 SW 11 13 6 7 1034.0 1034.0 0.0
25/07:30pm 13.9 12.1 10.7 81 1.7 SW 11 13 6 7 1034.0 1034.0 0.0
25/07:00pm 13.6 12.1 10.6 82 1.6 SW 9 11 5 6 1033.8 1033.8 0.0
25/06:30pm 14.2 12.8 11.0 81 1.7 SW 9 9 5 5 1033.6 1033.6 0.0
25/06:00pm 14.9 13.9 11.1 78 2.0 SW 7 11 4 6 1033.3 1033.3 0.0
25/05:30pm 15.0 14.1 11.2 78 2.0 SSE 7 11 4 6 1033.1 1033.1 0.0
25/05:00pm 15.6 13.0 10.8 73 2.5 SSE 15 19 8 10 1033.2 1033.2 0.0
25/04:30pm 15.9 12.9 10.7 71 2.8 S 17 22 9 12 1032.9 1032.9 0.0
25/04:00pm 16.3 13.2 10.4 68 3.1 S 17 22 9 12 1032.8 1032.8 0.0
25/03:30pm 16.6 13.5 10.2 66 3.4 SSE 17 22 9 12 1032.7 1032.7 0.0
25/03:00pm 16.5 13.3 10.1 66 3.3 S 17 22 9 12 1032.5 1032.5 0.0
25/02:30pm 16.6 12.9 10.0 65 3.5 SSE 20 28 11 15 1032.4 1032.4 0.0
25/02:00pm 17.0 14.4 10.8 67 3.3 SSE 15 22 8 12 1032.5 1032.5 0.0
25/01:30pm 17.0 13.6 10.4 65 3.5 SE 19 24 10 13 1032.5 1032.5 0.0
25/01:00pm 16.6 13.9 10.5 67 3.2 S 15 24 8 13 1032.7 1032.7 0.0
25/12:30pm 15.8 12.3 11.0 73 2.6 S 20 28 11 15 1033.0 1033.0 0.0
25/12:00pm 16.9 13.7 11.2 69 3.0 S 19 24 10 13 1033.2 1033.2 0.0
25/11:30am 16.4 12.3 11.3 72 2.7 SSE 24 32 13 17 1033.8 1033.8 0.0
25/11:00am 16.3 13.3 11.9 75 2.4 SE 19 32 10 17 1034.0 1034.0 0.0
25/10:30am 15.8 15.2 12.4 80 1.9 SSW 7 13 4 7 1034.0 1034.0 0.0
25/10:00am 14.4 13.3 12.1 86 1.2 SW 9 15 5 8 1034.4 1034.4 0.0
25/09:30am 13.5 11.9 11.6 88 1.0 SW 11 15 6 8 1034.5 1034.5 0.0
25/09:00am 12.0 10.5 10.7 92 0.7 W 9 13 5 7 1034.3 1034.3 11.2
25/08:30am 11.5 10.6 10.6 94 0.5 WSW 6 9 3 5 1033.9 1033.9 11.2
25/08:00am 10.9 11.0 10.3 96 0.3 CALM 0 0 0 0 1033.8 1033.8 11.2
25/07:30am 9.6 8.1 9.0 96 0.3 WSW 7 11 4 6 1033.6 1033.6 11.2
25/07:00am 10.2 10.1 9.6 96 0.3 CALM 0 0 0 0 1033.4 1033.4 11.2
25/06:30am 10.3 10.3 9.7 96 0.3 CALM 0 0 0 0 1033.2 1033.2 11.2
25/06:00am 10.7 10.0 10.1 96 0.3 WSW 4 7 2 4 1032.9 1032.9 11.2
25/05:30am 10.5 9.1 9.7 95 0.4 W 7 9 4 5 1032.8 1032.8 11.2
25/05:00am 11.3 11.5 10.7 96 0.3 CALM 0 0 0 0 1032.5 1032.5 11.2
25/04:30am 11.4 10.5 10.8 96 0.3 WNW 6 9 3 5 1032.5 1032.5 11.2
25/04:00am 11.4 10.5 10.8 96 0.3 WNW 6 9 3 5 1032.5 1032.5 11.2
25/03:37am 11.3 11.2 10.7 96 0.3 WNW 2 7 1 4 1032.6 1032.6 11.2
25/03:30am 11.3 11.2 10.7 96 0.3 NW 2 6 1 3 1032.6 1032.6 11.2
25/03:04am 11.2 10.1 10.6 96 0.3 WNW 7 9 4 5 1032.5 1032.5 11.2
25/03:00am 11.2 10.1 10.6 96 0.3 W 7 9 4 5 1032.5 1032.5 11.2
25/02:30am 11.1 11.2 10.3 95 0.4 CALM 0 0 0 0 1032.6 1032.6 9.2
25/02:29am 11.1 11.2 10.3 95 0.4 CALM 0 0 0 0 1032.6 1032.6 9.2
25/02:27am 11.1 11.2 10.3 95 0.4 CALM 0 2 0 1 1032.6 1032.6 9.0
25/02:00am 11.2 9.9 10.1 93 0.6 WSW 7 11 4 6 1032.7 1032.7 4.6
25/01:34am 11.2 10.9 10.1 93 0.6 NNW 2 11 1 6 1032.8 1032.8 3.8
25/01:30am 11.2 10.9 10.1 93 0.6 NW 2 6 1 3 1032.8 1032.8 3.0
25/01:00am 11.0 9.7 10.1 94 0.5 WSW 7 13 4 7 1032.7 1032.7 3.0
25/12:58am 11.0 9.4 10.1 94 0.5 WSW 9 13 5 7 1032.7 1032.7 3.0
25/12:44am 11.0 8.6 10.1 94 0.5 WSW 13 17 7 9 1032.7 1032.7 2.8
25/12:30am 11.1 9.1 10.3 95 0.4 WSW 11 19 6 10 1032.7 1032.7 2.8
25/12:29am 11.1 9.1 10.3 95 0.4 WSW 11 17 6 9 1032.7 1032.7 2.8
25/12:26am 11.1 9.5 10.3 95 0.4 WSW 9 17 5 9 1032.7 1032.7 2.8
25/12:01am 11.2 11.0 10.4 95 0.4 WNW 2 9 1 5 1032.8 1032.8 2.6
25/12:00am 11.1 10.5 10.3 95 0.4 WNW 4 11 2 6 1032.8 1032.8 2.6
 
Date/Time
EST
Temp
°C
App
Temp
°C
Dew
Point
°C
Rel
Hum
%
Delta-T
°C
Wind Press
QNH
hPa
Press
MSL
hPa
Rain since
9am
mm
Dir  Spd
km/h
Gust
km/h
Spd
kts
Gust
kts
24/11:57pm 11.2 10.2 10.4 95 0.4 NW 6 11 3 6 1032.8 1032.8 2.6
24/11:55pm 11.2 10.0 10.4 95 0.4 NW 7 11 4 6 1032.8 1032.8 2.6
24/11:30pm 11.1 9.9 10.3 95 0.4 NNW 7 11 4 6 1032.8 1032.8 1.8
24/11:18pm 11.2 10.2 10.4 95 0.4 NNW 6 11 3 6 1033.0 1033.0 1.4
24/11:10pm 11.1 10.1 10.3 95 0.4 W 6 11 3 6 1032.8 1032.8 1.0
24/11:00pm 11.1 9.5 10.3 95 0.4 W 9 13 5 7 1032.7 1032.7 0.6
24/10:55pm 11.0 9.8 10.2 95 0.4 W 7 11 4 6 1032.7 1032.7 0.6
24/10:45pm 10.9 9.6 10.1 95 0.4 NNE 7 11 4 6 1032.8 1032.8 0.4
24/10:31pm 10.4 9.6 9.6 95 0.4 W 4 7 2 4 1032.6 1032.6 0.4
24/10:30pm 10.4 9.6 9.6 95 0.4 W 4 7 2 4 1032.6 1032.6 0.4
24/10:14pm 10.3 10.2 9.4 94 0.4 CALM 0 0 0 0 1032.5 1032.5 0.4
24/10:00pm 9.9 9.7 9.0 94 0.4 CALM 0 0 0 0 1032.4 1032.4 0.2
24/09:30pm 9.4 8.6 8.2 92 0.6 WSW 2 7 1 4 1032.5 1032.5 0.2
24/09:00pm 10.5 10.4 9.3 92 0.6 CALM 0 2 0 1 1032.3 1032.3 0.2
24/08:30pm 10.4 10.2 9.2 92 0.6 CALM 0 0 0 0 1032.4 1032.4 0.2
24/08:00pm 10.3 9.7 8.9 91 0.7 SW 2 7 1 4 1032.2 1032.2 0.2
24/07:30pm 10.3 9.6 8.7 90 0.8 SW 2 7 1 4 1032.2 1032.2 0.2
24/07:00pm 10.7 9.5 9.5 92 0.6 WSW 6 7 3 4 1031.8 1031.8 0.2
24/06:30pm 10.8 10.6 9.1 89 0.8 CALM 0 0 0 0 1031.7 1031.7 0.2
24/06:00pm 11.9 12.0 10.1 89 0.9 CALM 0 2 0 1 1031.4 1031.4 0.2
24/05:30pm 11.6 9.7 9.2 85 1.2 SSW 9 9 5 5 1031.1 1031.1 0.2
24/05:00pm 12.9 10.4 9.7 81 1.6 SSW 13 15 7 8 1030.9 1030.9 0.2
24/04:30pm 14.0 11.7 10.6 80 1.8 SSW 13 17 7 9 1030.8 1030.8 0.2
24/04:00pm 14.8 11.7 10.4 75 2.3 SSW 17 22 9 12 1030.7 1030.7 0.2
24/03:30pm 15.0 12.0 10.8 76 2.2 SSW 17 24 9 13 1030.6 1030.6 0.2
24/03:00pm 14.5 11.3 11.3 81 1.7 S 19 24 10 13 1030.6 1030.6 0.2
24/02:30pm 14.6 10.4 11.2 80 1.8 S 24 32 13 17 1030.6 1030.6 0.2
24/02:00pm 14.6 11.0 11.7 83 1.5 S 22 32 12 17 1030.7 1030.7 0.2
24/01:30pm 15.6 11.2 10.4 71 2.7 S 24 35 13 19 1030.6 1030.6 0.0
24/01:00pm 16.2 11.5 10.7 70 2.9 SSE 26 35 14 19 1030.6 1030.6 0.0
24/12:30pm 15.8 10.3 10.6 71 2.8 S 30 43 16 23 1030.9 1030.9 0.0
24/12:00pm 16.4 10.9 10.5 68 3.1 S 30 37 16 20 1030.9 1030.9 0.0
24/11:30am 15.9 11.0 10.0 68 3.1 S 26 37 14 20 1031.2 1031.2 0.0
24/11:00am 16.0 12.2 9.9 67 3.2 S 20 30 11 16 1031.4 1031.4 0.0
24/10:30am 14.2 13.3 11.5 84 1.4 N 7 11 4 6 1031.6 1031.6 0.0
24/10:00am 12.8 11.8 10.3 85 1.3 W 6 9 3 5 1031.6 1031.6 0.0
24/09:30am 11.3 9.9 9.6 89 0.9 WSW 7 13 4 7 1031.3 1031.3 0.0
24/09:00am 10.3 7.9 8.7 90 0.8 W 11 15 6 8 1031.3 1031.3 6.8
24/08:30am 10.0 7.9 8.4 90 0.8 W 9 13 5 7 1030.9 1030.9 6.8
24/08:00am 9.8 7.7 8.2 90 0.8 WSW 9 13 5 7 1030.7 1030.7 6.8
24/07:30am 9.9 6.7 8.3 90 0.8 WSW 15 24 8 13 1030.6 1030.6 6.6
24/07:00am 9.9 6.8 8.7 92 0.6 WSW 15 20 8 11 1030.3 1030.3 6.6
24/06:30am 9.6 7.9 8.5 93 0.5 SW 7 11 4 6 1030.1 1030.1 6.6
24/06:00am 9.6 7.2 8.5 93 0.5 WSW 11 15 6 8 1029.8 1029.8 6.2
24/05:30am 9.5 7.1 8.6 94 0.4 WSW 11 15 6 8 1029.7 1029.7 6.2
24/05:00am 9.3 7.6 8.2 93 0.5 WSW 7 9 4 5 1029.6 1029.6 6.2
24/04:30am 9.6 6.8 8.4 92 0.6 W 13 20 7 11 1029.2 1029.2 6.2
24/04:00am 10.0 7.2 8.6 91 0.7 WSW 13 19 7 10 1029.1 1029.1 6.0
24/03:30am 10.9 8.1 10.0 94 0.5 SSW 15 24 8 13 1029.2 1029.2 5.0
24/03:00am 9.5 7.4 8.4 93 0.5 W 9 13 5 7 1029.1 1029.1 4.0
24/02:30am 9.2 7.1 8.1 93 0.5 WNW 9 11 5 6 1029.0 1029.0 4.0
24/02:00am 9.2 6.9 7.6 90 0.8 W 9 11 5 6 1028.9 1028.9 4.0
24/01:30am 9.8 6.9 8.2 90 0.8 W 13 15 7 8 1028.6 1028.6 4.0
24/01:00am 9.9 7.5 8.5 91 0.7 W 11 17 6 9 1028.8 1028.8 4.0
24/12:33am 10.1 7.0 8.7 91 0.7 W 15 19 8 10 1028.6 1028.6 4.0
24/12:30am 10.0 6.8 8.6 91 0.7 WNW 15 19 8 10 1028.6 1028.6 4.0
24/12:12am 10.0 7.6 8.6 91 0.7 NW 11 19 6 10 1029.0 1029.0 4.0
24/12:00am 10.2 7.5 8.8 91 0.7 N 13 20 7 11 1029.1 1029.1 4.0
 
Date/Time
EST
Temp
°C
App
Temp
°C
Dew
Point
°C
Rel
Hum
%
Delta-T
°C
Wind Press
QNH
hPa
Press
MSL
hPa
Rain since
9am
mm
Dir  Spd
km/h
Gust
km/h
Spd
kts
Gust
kts
23/11:30pm 9.7 6.5 8.5 92 0.6 W 15 20 8 11 1028.4 1028.4 2.6
23/11:00pm 9.7 7.7 8.5 92 0.6 WNW 9 15 5 8 1028.7 1028.7 2.2
23/10:30pm 9.8 7.3 8.4 91 0.7 WSW 11 17 6 9 1028.5 1028.5 0.8
23/10:00pm 10.0 7.4 7.9 87 1.0 WSW 11 17 6 9 1028.6 1028.6 0.0
23/09:30pm 10.1 7.5 7.7 85 1.2 WSW 11 15 6 8 1028.3 1028.3 0.0
23/09:00pm 10.3 8.0 7.4 82 1.4 SW 9 13 5 7 1028.3 1028.3 0.0
23/08:30pm 10.5 7.8 7.2 80 1.6 WSW 11 15 6 8 1027.9 1027.9 0.0
23/08:00pm 10.7 7.9 7.0 78 1.7 SW 11 19 6 10 1027.8 1027.8 0.0
23/07:30pm 10.7 7.6 7.2 79 1.7 SW 13 19 7 10 1027.5 1027.5 0.0

Latest Capital City Observations: Canberra | Sydney | Melbourne | Brisbane | Adelaide | Perth | Hobart | Darwin

Other formats

Comma delimited format used in spreadsheet applications
http://www.bom.gov.au/fwo/IDN60901/IDN60901.94765.axf

JavaScript Object Notation format (JSON) in row-major order
http://www.bom.gov.au/fwo/IDN60901/IDN60901.94765.json

Data quality

Most of these data are generated automatically and are frequently updated. Quality checks on data are not normally performed. It is possible for incorrect values to appear. Refer to information at About Latest Weather Observations and please check the disclaimer before using these data.